Terminal Aerodrome Forecast
Issued by NWS Pendleton, OR

Home | Current Version | Previous Version | Text Only | Print | Product List | Glossary On
Versions: 1 2 3 4 5 6 7 8 9 10 11 12 13 14 15
000
FTUS46 KPDT 302320
TAFPDT
TAF
KPDT 302320Z 3100/3124 28016G24KT P6SM SCT060
     FM310400 27012KT P6SM SCT080
     FM310700 20006KT P6SM FEW080 SCT200
     FM311800 28012G18KT P6SM BKN200=

USA.gov is the U.S. government's official web portal to all federal, state and local government web resources and services.